Time;durP1;ratioP1;P1;durP2;ratioP2;P2;SDS_P1;SDS_P2;PMS_P1;PMS_P2;Temp;Humidity;BMP_temperature;BMP_pressure;BME280_temperature;BME280_humidity;BME280_pressure;Samples;Min_cycle;Max_cycle;Signal;HPM_P1;HPM_P2
2021/12/11 00:00:34;;;;;;;;;;;5.00;99.90;;;5.25;100.00;99222.41;4842660;29;19975;-76
2021/12/11 00:03:18;;;;;;;;;;;5.10;99.90;;;5.27;100.00;99218.00;4856711;29;20381;-76
2021/12/11 00:05:54;;;;;;;;;;;4.70;99.90;;;5.26;100.00;99224.13;4844065;29;19934;-76
2021/12/11 00:08:26;;;;;;;;;;;5.00;99.90;;;5.23;100.00;99225.03;4872757;29;19931;-76
2021/12/11 00:11:17;;;;;;;;;;;5.80;99.90;;;5.13;100.00;99227.88;4857569;29;19924;-76
2021/12/11 00:13:44;;;;;;;;;;;5.40;99.90;;;5.20;100.00;99238.16;4863917;29;19935;-76
2021/12/11 00:16:17;;;;;;;;;;;4.80;99.90;;;5.15;100.00;99239.13;4857444;29;19935;-76
2021/12/11 00:18:44;;;;;;;;;;;4.90;99.90;;;5.20;100.00;99245.97;4857306;29;20369;-77
2021/12/11 00:21:17;;;;;;;;;;;4.90;99.90;;;5.26;100.00;99242.38;4857437;29;19931;-77
2021/12/11 00:23:52;;;;;;;;;;;4.90;99.90;;;5.23;100.00;99250.28;4857897;29;20599;-77
2021/12/11 00:26:30;;;;;;;;;;;4.90;99.90;;;5.21;100.00;99258.13;4857698;29;20356;-77
2021/12/11 00:28:57;;;;;;;;;;;4.90;99.90;;;5.16;100.00;99266.91;4872308;29;19927;-77
2021/12/11 00:31:26;;;;;;;;;;;4.80;99.90;;;5.22;100.00;99272.00;4857291;29;19928;-76
2021/12/11 00:33:54;;;;;;;;;;;6.60;99.90;;;5.24;100.00;99272.84;4850869;29;20063;-76
2021/12/11 00:36:27;;;;;;;;;;;4.80;99.90;;;5.21;100.00;99280.72;4879196;29;19923;-77
2021/12/11 00:39:00;;;;;;;;;;;4.90;99.90;;;5.29;100.00;99291.00;4894167;29;19928;-76
2021/12/11 00:41:31;;;;;;;;;;;7.10;99.90;;;5.31;100.00;99291.84;4895173;29;20401;-76
2021/12/11 00:44:01;;;;;;;;;;;6.50;99.90;;;5.27;100.00;99309.31;4893159;29;19933;-76
2021/12/11 00:46:30;;;;;;;;;;;4.90;99.90;;;5.25;100.00;99311.94;4909901;29;19979;-76
2021/12/11 00:49:21;;;;;;;;;;;5.50;99.90;;;5.32;100.00;99312.66;4893543;29;19931;-77
2021/12/11 00:51:50;;;;;;;;;;;4.80;99.90;;;5.29;100.00;99325.78;4879071;29;19927;-77
2021/12/11 00:54:17;;;;;;;;;;;6.60;99.90;;;5.23;100.00;99329.34;4893593;29;19928;-77
2021/12/11 00:56:51;;;;;;;;;;;5.30;99.90;;;5.22;100.00;99335.47;4879213;29;19969;-76
2021/12/11 00:59:20;;;;;;;;;;;5.90;99.90;;;5.11;100.00;99340.88;4861734;29;19927;-76
2021/12/11 01:01:55;;;;;;;;;;;4.90;99.90;;;5.09;100.00;99340.06;4893988;29;19923;-78
2021/12/11 01:04:28;;;;;;;;;;;5.00;99.90;;;5.04;100.00;99341.03;4893047;29;19956;-76
2021/12/11 01:07:07;;;;;;;;;;;5.00;99.90;;;5.03;100.00;99350.56;4894097;29;20001;-77
2021/12/11 01:09:47;;;;;;;;;;;5.70;99.90;;;4.96;100.00;99356.78;4864172;29;19962;-77
2021/12/11 01:12:26;;;;;;;;;;;4.70;99.90;;;4.95;100.00;99361.13;4892782;29;20392;-77
2021/12/11 01:14:59;;;;;;;;;;;7.00;99.90;;;5.03;100.00;99374.03;4894105;29;20683;-77
2021/12/11 01:17:43;;;;;;;;;;;4.70;99.90;;;4.99;100.00;99380.19;4896271;29;19927;-76
2021/12/11 01:20:23;;;;;;;;;;;4.70;99.90;;;4.97;100.00;99388.03;4873951;29;19932;-76
2021/12/11 01:22:51;;;;;;;;;;;4.80;99.90;;;4.92;100.00;99395.09;4870514;29;19928;-76
2021/12/11 01:25:28;;;;;;;;;;;4.70;99.90;;;4.95;100.00;99405.44;4855945;29;19927;-76
2021/12/11 01:27:59;;;;;;;;;;;5.70;99.90;;;4.97;100.00;99411.50;4855748;29;19924;-77
2021/12/11 01:30:33;;;;;;;;;;;4.70;99.90;;;4.99;100.00;99427.13;4871262;29;19923;-78
2021/12/11 01:33:01;;;;;;;;;;;4.70;99.90;;;5.05;100.00;99428.78;4839743;29;19928;-77
2021/12/11 01:35:28;;;;;;;;;;;6.00;99.90;;;4.94;100.00;99429.81;4871177;29;19931;-77
2021/12/11 01:38:10;;;;;;;;;;;4.80;99.90;;;4.97;100.00;99432.34;4870915;29;19928;-78
2021/12/11 01:40:38;;;;;;;;;;;4.70;99.90;;;5.01;100.00;99440.16;4871388;29;19976;-78
2021/12/11 01:43:06;;;;;;;;;;;4.80;99.90;;;4.96;100.00;99448.88;4870135;29;19928;-78
2021/12/11 01:45:35;;;;;;;;;;;5.80;99.90;;;4.89;100.00;99444.66;4855825;29;19931;-78
2021/12/11 01:48:03;;;;;;;;;;;4.80;99.90;;;4.99;100.00;99462.75;4870840;29;19928;-77
2021/12/11 01:50:37;;;;;;;;;;;4.70;99.90;;;4.91;100.00;99453.31;4871076;29;19941;-78
2021/12/11 01:53:09;;;;;;;;;;;6.00;99.90;;;4.92;100.00;99467.22;4869598;29;19928;-77
2021/12/11 01:55:50;;;;;;;;;;;4.60;99.90;;;4.99;100.00;99471.44;4870569;29;19951;-77
2021/12/11 01:58:34;;;;;;;;;;;4.70;99.90;;;5.00;100.00;99477.53;4870576;29;19934;-77
2021/12/11 02:01:09;;;;;;;;;;;4.60;99.90;;;5.03;100.00;99485.31;4855753;29;19947;-78
2021/12/11 02:03:37;;;;;;;;;;;6.00;99.90;;;5.02;100.00;99497.47;4880472;29;19928;-77
2021/12/11 02:06:04;;;;;;;;;;;2.40;99.90;;;5.03;100.00;99486.16;4871046;29;19928;-77
2021/12/11 02:08:34;;;;;;;;;;;5.50;99.90;;;5.01;100.00;99500.97;4885550;29;19924;-76
2021/12/11 02:11:24;;;;;;;;;;;4.80;99.90;;;4.97;100.00;99502.75;4885702;29;20018;-77
2021/12/11 02:13:57;;;;;;;;;;;4.60;99.90;;;4.96;100.00;99514.06;4867499;29;19931;-77
2021/12/11 02:16:31;;;;;;;;;;;4.70;99.90;;;4.97;100.00;99515.78;4870500;29;19928;-78
2021/12/11 02:19:06;;;;;;;;;;;4.90;99.90;;;4.96;100.00;99531.47;4885282;29;19924;-78
2021/12/11 02:21:36;;;;;;;;;;;5.50;99.90;;;4.85;100.00;99534.22;4870432;29;19935;-77
2021/12/11 02:24:14;;;;;;;;;;;4.60;99.90;;;4.87;100.00;99537.69;4884641;29;19923;-77
2021/12/11 02:26:42;;;;;;;;;;;4.70;99.90;;;4.87;100.00;99535.06;4884560;29;20302;-77
2021/12/11 02:29:18;;;;;;;;;;;5.90;99.90;;;4.96;100.00;99547.94;4870171;29;19959;-77
2021/12/11 02:31:50;;;;;;;;;;;4.70;99.90;;;4.96;100.00;99555.78;4856409;29;19928;-78
2021/12/11 02:34:36;;;;;;;;;;;5.60;99.90;;;4.90;100.00;99555.88;4856508;29;20014;-81
2021/12/11 02:37:11;;;;;;;;;;;4.60;99.90;;;4.90;100.00;99566.31;4870651;29;19935;-77
2021/12/11 02:39:51;;;;;;;;;;;4.70;99.90;;;4.91;100.00;99574.97;4854470;29;19936;-78
2021/12/11 02:42:27;;;;;;;;;;;4.60;99.90;;;4.91;100.00;99572.34;4854778;29;19928;-78
2021/12/11 02:45:20;;;;;;;;;;;4.40;99.90;;;4.91;100.00;99573.22;4855268;29;19928;-77
2021/12/11 02:47:58;;;;;;;;;;;4.70;99.90;;;4.85;100.00;99588.97;4839158;29;19935;-76
2021/12/11 02:50:36;;;;;;;;;;;4.60;99.90;;;4.92;100.00;99592.34;4856748;29;19924;-77
2021/12/11 02:53:13;;;;;;;;;;;4.70;99.90;;;4.93;100.00;99601.91;4854431;29;19928;-77
2021/12/11 02:56:02;;;;;;;;;;;4.60;99.90;;;4.90;100.00;99602.78;4870332;29;19935;-77
2021/12/11 02:58:34;;;;;;;;;;;4.60;99.90;;;4.91;100.00;99614.06;4855735;29;19932;-77
2021/12/11 03:01:04;;;;;;;;;;;4.60;99.90;;;4.96;100.00;99612.28;4856399;29;19924;-77
2021/12/11 03:03:44;;;;;;;;;;;4.60;99.90;;;4.91;100.00;99620.16;4860605;29;19928;-76
2021/12/11 03:06:18;;;;;;;;;;;4.70;99.90;;;4.89;100.00;99621.94;4866198;29;19931;-77
2021/12/11 03:08:47;;;;;;;;;;;6.70;99.90;;;4.86;100.00;99621.97;4855236;29;20026;-77
2021/12/11 03:11:18;;;;;;;;;;;4.70;99.90;;;4.92;100.00;99634.91;4855135;29;19935;-77
2021/12/11 03:13:50;;;;;;;;;;;7.00;99.90;;;4.96;100.00;99640.97;4864973;29;19949;-78
2021/12/11 03:16:24;;;;;;;;;;;5.40;99.90;;;4.93;100.00;99646.22;4876635;29;20010;-77
2021/12/11 03:18:52;;;;;;;;;;;4.60;99.90;;;4.93;100.00;99651.44;4891141;29;19927;-77
2021/12/11 03:21:19;;;;;;;;;;;6.60;99.90;;;4.94;100.00;99655.78;4876352;29;19931;-77
2021/12/11 03:23:47;;;;;;;;;;;4.60;99.90;;;4.90;100.00;99654.06;4878868;29;19923;-77
2021/12/11 03:26:14;;;;;;;;;;;4.80;99.90;;;4.89;100.00;99673.19;4894642;29;19934;-78
2021/12/11 03:28:41;;;;;;;;;;;4.90;99.90;;;4.92;100.00;99673.19;4876656;29;19971;-78
2021/12/11 03:31:13;;;;;;;;;;;4.80;99.90;;;4.89;100.00;99683.63;4877005;29;19924;-77
2021/12/11 03:33:43;;;;;;;;;;;4.60;99.90;;;4.75;100.00;99687.22;4891193;29;20030;-77
2021/12/11 03:36:13;;;;;;;;;;;5.00;99.90;;;4.86;100.00;99694.97;4892089;29;19934;-77
2021/12/11 03:38:47;;;;;;;;;;;4.50;99.90;;;4.88;100.00;99702.75;4891918;29;19927;-77
2021/12/11 03:41:14;;;;;;;;;;;4.50;99.90;;;4.93;100.00;99706.19;4891652;29;19924;-77
2021/12/11 03:43:42;;;;;;;;;;;4.60;99.90;;;4.92;100.00;99720.94;4891087;29;19934;-77
2021/12/11 03:46:10;;;;;;;;;;;6.00;99.90;;;4.92;100.00;99715.72;4892252;29;19924;-77
2021/12/11 03:48:45;;;;;;;;;;;4.60;99.90;;;4.80;100.00;99726.28;4891731;29;19959;-77
2021/12/11 03:51:15;;;;;;;;;;;5.60;99.90;;;4.74;100.00;99726.38;4876466;29;19927;-78
2021/12/11 03:53:42;;;;;;;;;;;4.40;99.90;;;4.81;100.00;99731.50;4890635;29;19928;-77
2021/12/11 03:56:12;;;;;;;;;;;5.60;99.90;;;4.79;100.00;99737.59;4876621;29;19923;-77
2021/12/11 03:58:48;;;;;;;;;;;4.60;99.90;;;4.80;100.00;99745.41;4875782;29;19924;-77
2021/12/11 04:01:27;;;;;;;;;;;4.50;99.90;;;4.80;100.00;99747.13;4876158;29;19924;-78
2021/12/11 04:04:04;;;;;;;;;;;6.40;99.90;;;4.68;100.00;99754.22;4889716;29;20014;-77
2021/12/11 04:06:32;;;;;;;;;;;4.50;99.90;;;4.80;100.00;99760.19;4875600;29;19923;-77
2021/12/11 04:09:00;;;;;;;;;;;5.40;99.90;;;4.82;100.00;99769.72;4860490;29;19931;-77
2021/12/11 04:11:30;;;;;;;;;;;4.60;99.90;;;4.83;100.00;99771.44;4860738;29;19928;-78
2021/12/11 04:14:03;;;;;;;;;;;4.60;99.90;;;4.84;100.00;99774.94;4875124;29;19928;-77
2021/12/11 04:16:31;;;;;;;;;;;6.10;99.90;;;4.79;100.00;99774.09;4845617;29;20042;-77
2021/12/11 04:18:59;;;;;;;;;;;5.20;99.90;;;4.87;100.00;99782.72;4875528;29;19928;-77
2021/12/11 04:21:26;;;;;;;;;;;5.40;99.90;;;4.98;100.00;99787.81;4891521;29;19928;-77
2021/12/11 04:23:53;;;;;;;;;;;6.50;99.90;;;4.99;100.00;99793.88;4874812;29;19928;-77
2021/12/11 04:26:21;;;;;;;;;;;4.80;99.90;;;4.99;100.00;99804.31;4860522;29;19936;-78
2021/12/11 04:28:48;;;;;;;;;;;4.60;99.90;;;5.08;100.00;99805.09;4880882;29;19924;-78
2021/12/11 04:31:21;;;;;;;;;;;5.30;99.90;;;5.00;100.00;99808.66;4894100;29;20530;-76
2021/12/11 04:33:50;;;;;;;;;;;4.70;99.90;;;5.04;100.00;99807.75;4878287;29;19934;-77
2021/12/11 04:36:21;;;;;;;;;;;4.60;99.90;;;5.06;100.00;99814.66;4894286;29;19934;-77
2021/12/11 04:38:48;;;;;;;;;;;4.70;99.90;;;5.09;100.00;99821.59;4894071;29;19936;-77
2021/12/11 04:41:23;;;;;;;;;;;5.50;99.90;;;5.05;100.00;99823.34;4878510;29;19927;-77
2021/12/11 04:43:51;;;;;;;;;;;4.50;99.90;;;5.04;100.00;99829.44;4878219;29;20038;-78
2021/12/11 04:46:18;;;;;;;;;;;4.80;99.90;;;5.06;100.00;99835.50;4893937;29;20705;-77
2021/12/11 04:51:29;;;;;;;;;;;4.60;99.90;;;5.09;100.00;99845.06;4895242;29;19933;-77
2021/12/11 05:10:33;;;;;;;;;;;4.70;99.90;;;4.96;100.00;99879.06;4894046;29;20038;-78
2021/12/11 05:13:00;;;;;;;;;;;5.90;99.90;;;4.76;100.00;99891.41;4878874;29;19933;-78
2021/12/11 05:15:34;;;;;;;;;;;5.30;99.90;;;4.77;100.00;99895.75;4893895;29;19943;-78
2021/12/11 05:18:04;;;;;;;;;;;4.70;99.90;;;4.75;100.00;99906.16;4893059;29;19934;-77
2021/12/11 05:20:32;;;;;;;;;;;5.50;99.90;;;4.83;100.00;99912.19;4878330;29;20389;-78
2021/12/11 05:22:59;;;;;;;;;;;4.30;99.90;;;4.71;100.00;99914.06;4857403;29;19928;-78
2021/12/11 05:25:27;;;;;;;;;;;4.50;99.90;;;4.74;100.00;99925.28;4874639;29;19935;-77
2021/12/11 05:27:54;;;;;;;;;;;6.50;99.90;;;4.72;100.00;99932.25;4874278;29;19950;-77
2021/12/11 05:30:29;;;;;;;;;;;6.20;99.90;;;4.68;100.00;99936.66;4890136;29;19979;-77
2021/12/11 05:32:58;;;;;;;;;;;4.50;99.90;;;4.77;100.00;99945.28;4873872;29;19924;-77
2021/12/11 05:35:28;;;;;;;;;;;4.50;99.90;;;4.82;100.00;99960.00;4874702;29;19934;-77
2021/12/11 05:37:55;;;;;;;;;;;5.40;99.90;;;4.75;100.00;99955.69;4874104;29;19924;-77
2021/12/11 05:40:24;;;;;;;;;;;4.40;99.90;;;4.74;100.00;99956.56;4874622;29;20381;-77
2021/12/11 05:42:52;;;;;;;;;;;6.80;99.90;;;4.79;100.00;99960.03;4888773;29;19938;-78
2021/12/11 05:45:19;;;;;;;;;;;4.40;99.90;;;4.70;100.00;99961.84;4889269;29;19932;-76
2021/12/11 05:47:46;;;;;;;;;;;5.30;99.90;;;4.76;100.00;99967.00;4889646;29;19984;-77
2021/12/11 05:50:18;;;;;;;;;;;4.50;99.90;;;4.75;100.00;99968.72;4889984;29;20304;-77
2021/12/11 05:52:47;;;;;;;;;;;3.90;99.90;;;4.62;100.00;99973.16;4874895;29;19932;-78
2021/12/11 05:55:18;;;;;;;;;;;4.40;99.90;;;4.72;100.00;99979.19;4874333;29;20557;-77
2021/12/11 05:57:52;;;;;;;;;;;3.50;99.90;;;4.77;100.00;99982.63;4874043;29;19931;-77
2021/12/11 06:00:24;;;;;;;;;;;5.90;99.90;;;4.77;100.00;99995.66;4888449;29;19932;-78
2021/12/11 06:02:57;;;;;;;;;;;4.40;99.90;;;4.85;100.00;99998.22;4856848;29;20293;-77
2021/12/11 06:05:24;;;;;;;;;;;4.40;99.90;;;4.74;100.00;100003.50;4866141;29;20003;-77
2021/12/11 06:08:10;;;;;;;;;;;4.50;99.90;;;4.88;100.00;100010.34;4855481;29;19993;-77
2021/12/11 06:10:40;;;;;;;;;;;4.50;99.90;;;4.84;100.00;100009.53;4855378;29;20413;-77
2021/12/11 06:13:08;;;;;;;;;;;5.20;99.90;;;4.79;100.00;100016.50;4841678;29;19984;-78
2021/12/11 06:15:35;;;;;;;;;;;6.80;99.90;;;4.77;100.00;100018.25;4870526;29;19928;-78
2021/12/11 06:18:04;;;;;;;;;;;4.70;99.90;;;4.87;100.00;100024.28;4870112;29;20627;-77
2021/12/11 06:20:32;;;;;;;;;;;4.40;99.90;;;4.76;100.00;100021.75;4855023;29;19940;-78
2021/12/11 06:23:06;;;;;;;;;;;5.40;99.90;;;4.78;100.00;100031.28;4855019;29;19931;-78
2021/12/11 06:25:34;;;;;;;;;;;4.50;99.90;;;4.74;100.00;100029.56;4870476;29;19932;-77
2021/12/11 06:28:04;;;;;;;;;;;4.90;99.90;;;4.76;100.00;100034.78;4855091;29;20449;-78
2021/12/11 06:30:31;;;;;;;;;;;4.50;99.90;;;4.81;100.00;100043.41;4870646;29;19926;-78
2021/12/11 06:32:58;;;;;;;;;;;6.10;99.90;;;4.85;100.00;100050.38;4866768;29;19931;-78
2021/12/11 06:35:54;;;;;;;;;;;4.40;99.90;;;4.87;100.00;100060.78;4891937;29;19946;-77
2021/12/11 06:38:24;;;;;;;;;;;4.40;99.90;;;4.88;100.00;100067.72;4891766;29;20289;-77
2021/12/11 06:40:54;;;;;;;;;;;4.50;99.90;;;4.85;100.00;100070.34;4896640;29;20013;-77
2021/12/11 06:43:23;;;;;;;;;;;4.20;99.90;;;4.84;100.00;100074.72;4892227;29;19927;-77
2021/12/11 06:45:50;;;;;;;;;;;4.40;99.90;;;4.77;100.00;100073.88;4892594;29;19923;-78
2021/12/11 06:48:17;;;;;;;;;;;4.40;99.90;;;4.76;100.00;100081.69;4892286;29;19932;-78
2021/12/11 06:50:46;;;;;;;;;;;4.40;99.90;;;4.73;100.00;100085.16;4892278;29;20300;-77
2021/12/11 06:53:37;;;;;;;;;;;4.30;99.90;;;4.74;100.00;100096.47;4892335;29;19928;-77
2021/12/11 06:56:05;;;;;;;;;;;4.40;99.90;;;4.74;100.00;100107.75;4878179;29;20308;-77
2021/12/11 06:58:35;;;;;;;;;;;4.40;99.90;;;4.75;100.00;100114.69;4879464;29;20026;-78
2021/12/11 07:01:08;;;;;;;;;;;4.40;99.90;;;4.74;100.00;100112.97;4896169;29;20403;-77
2021/12/11 07:03:37;;;;;;;;;;;6.80;99.90;;;4.65;100.00;100119.06;4895727;29;20485;-77
2021/12/11 07:06:21;;;;;;;;;;;5.30;99.90;;;4.70;100.00;100131.25;4895776;29;19930;-77
2021/12/11 07:08:49;;;;;;;;;;;6.20;99.90;;;4.65;100.00;100126.91;4880250;29;19933;-78
2021/12/11 07:11:17;;;;;;;;;;;6.60;99.90;;;4.63;100.00;100141.66;4880175;29;20046;-77
2021/12/11 07:13:47;;;;;;;;;;;6.40;99.90;;;4.62;100.00;100139.94;4895951;29;20440;-77
2021/12/11 07:16:14;;;;;;;;;;;4.80;99.90;;;4.59;100.00;100146.91;4880160;29;20278;-77
2021/12/11 07:18:41;;;;;;;;;;;4.50;99.90;;;4.61;100.00;100166.03;4873366;29;20172;-78
2021/12/11 07:21:08;;;;;;;;;;;4.40;99.90;;;4.62;100.00;100178.19;4876406;29;19924;-76
2021/12/11 07:23:38;;;;;;;;;;;4.80;99.90;;;4.60;100.00;100187.72;4876597;29;19979;-77
2021/12/11 07:26:16;;;;;;;;;;;4.30;99.90;;;4.52;100.00;100198.16;4876830;29;19923;-76
2021/12/11 07:28:48;;;;;;;;;;;4.40;99.90;;;4.58;100.00;100202.50;4866643;29;19924;-77
2021/12/11 07:31:16;;;;;;;;;;;4.40;99.90;;;4.60;100.00;100208.56;4858062;29;19924;-77
2021/12/11 07:33:43;;;;;;;;;;;4.50;99.90;;;4.54;100.00;100220.75;4857894;29;20378;-79
2021/12/11 07:36:11;;;;;;;;;;;5.60;99.90;;;4.60;100.00;100227.69;4873187;29;19928;-77
2021/12/11 07:38:56;;;;;;;;;;;4.30;99.90;;;4.63;100.00;100234.66;4873272;29;19924;-78
2021/12/11 07:41:23;;;;;;;;;;;4.30;99.90;;;4.60;100.00;100242.44;4890649;29;19927;-77
2021/12/11 07:43:53;;;;;;;;;;;5.50;99.90;;;4.60;100.00;100251.13;4876416;29;19928;-78
2021/12/11 07:46:24;;;;;;;;;;;4.40;99.90;;;4.61;100.00;100241.59;4876595;29;20023;-77
2021/12/11 07:48:51;;;;;;;;;;;4.80;99.90;;;4.54;100.00;100256.38;4877581;29;20381;-78
2021/12/11 07:51:20;;;;;;;;;;;4.40;99.90;;;4.56;100.00;100262.44;4864023;29;19939;-75
2021/12/11 07:53:48;;;;;;;;;;;5.90;99.90;;;4.60;100.00;100276.31;4881767;29;19927;-77
2021/12/11 07:56:18;;;;;;;;;;;4.40;99.90;;;4.66;100.00;100278.94;4878865;29;19928;-77
2021/12/11 07:58:46;;;;;;;;;;;7.30;99.90;;;4.67;100.00;100289.34;4877135;29;19930;-77
2021/12/11 08:01:13;;;;;;;;;;;4.40;99.90;;;4.67;100.00;100293.72;4861660;29;19927;-77
2021/12/11 08:03:41;;;;;;;;;;;4.40;99.90;;;4.62;100.00;100288.50;4855502;29;19958;-79
2021/12/11 08:06:10;;;;;;;;;;;6.50;99.90;;;4.70;100.00;100293.69;4882486;29;20549;-78
2021/12/11 08:08:37;;;;;;;;;;;4.80;99.90;;;4.66;100.00;100307.59;4859189;29;20389;-78
2021/12/11 08:11:11;;;;;;;;;;;4.50;99.90;;;4.66;100.00;100305.00;4875908;29;20221;-78
2021/12/11 08:13:40;;;;;;;;;;;5.40;99.90;;;4.72;100.00;100319.78;4860019;29;19980;-78
2021/12/11 08:16:07;;;;;;;;;;;4.50;99.90;;;4.64;100.00;100325.84;4859969;29;19928;-78
2021/12/11 08:18:34;;;;;;;;;;;4.70;99.90;;;4.71;100.00;100329.31;4858983;29;20408;-79
2021/12/11 08:21:02;;;;;;;;;;;5.40;99.90;;;4.71;100.00;100329.31;4879852;29;20386;-78
2021/12/11 08:23:29;;;;;;;;;;;7.20;99.90;;;4.73;100.00;100329.31;4845836;29;19924;-78
2021/12/11 08:25:57;;;;;;;;;;;4.40;99.90;;;4.77;100.00;100338.88;4885618;29;19924;-78
2021/12/11 08:28:29;;;;;;;;;;;5.20;99.90;;;4.80;100.00;100338.88;4870951;29;19934;-78
2021/12/11 08:30:59;;;;;;;;;;;4.40;99.90;;;4.76;100.00;100335.41;4882997;29;19923;-77
2021/12/11 08:33:26;;;;;;;;;;;4.50;99.90;;;4.80;100.00;100350.19;4861515;29;19974;-78
2021/12/11 08:36:11;;;;;;;;;;;4.60;99.90;;;4.79;100.00;100345.84;4880700;29;19972;-76
2021/12/11 08:38:41;;;;;;;;;;;4.70;99.90;;;4.85;100.00;100357.13;4876313;29;19930;-78
2021/12/11 08:41:13;;;;;;;;;;;5.40;99.90;;;4.87;100.00;100357.97;4875246;29;19953;-76
2021/12/11 08:43:41;;;;;;;;;;;5.20;99.90;;;4.85;100.00;100362.34;4875543;29;19934;-76
2021/12/11 08:46:14;;;;;;;;;;;5.20;99.90;;;4.85;100.00;100364.94;4875491;29;19931;-77
2021/12/11 08:48:47;;;;;;;;;;;6.10;99.90;;;4.89;100.00;100372.75;4875471;29;19969;-77
2021/12/11 08:51:19;;;;;;;;;;;5.40;99.90;;;4.90;100.00;100378.84;4881415;29;19928;-77
2021/12/11 08:53:46;;;;;;;;;;;4.70;99.90;;;4.86;100.00;100383.19;4875975;29;19933;-77
2021/12/11 08:56:14;;;;;;;;;;;5.20;99.90;;;4.85;100.00;100380.59;4844741;29;19924;-77
2021/12/11 08:58:43;;;;;;;;;;;6.60;99.90;;;4.92;100.00;100385.78;4861544;29;19931;-76
2021/12/11 09:01:12;;;;;;;;;;;4.80;99.90;;;5.04;100.00;100387.50;4882373;29;19928;-76
2021/12/11 09:03:55;;;;;;;;;;;7.00;99.90;;;5.03;100.00;100392.75;4874066;29;19928;-76
2021/12/11 09:06:32;;;;;;;;;;;4.90;99.90;;;5.02;100.00;100401.44;4873489;29;20401;-76
2021/12/11 09:09:14;;;;;;;;;;;4.90;99.90;;;5.10;100.00;100402.28;4863382;29;19928;-77
2021/12/11 09:11:58;;;;;;;;;;;5.00;99.90;;;5.07;100.00;100413.63;4870431;29;20419;-77
2021/12/11 09:14:28;;;;;;;;;;;4.90;99.90;;;5.13;100.00;100422.31;4873590;29;19966;-77
2021/12/11 09:17:20;;;;;;;;;;;5.20;99.90;;;5.15;100.00;100431.00;4892710;29;19923;-77
2021/12/11 09:20:07;;;;;;;;;;;4.90;99.90;;;5.15;100.00;100434.47;4885010;29;20026;-78
2021/12/11 09:22:43;;;;;;;;;;;5.10;99.90;;;5.19;100.00;100448.38;4873823;29;19927;-77
2021/12/11 09:25:55;;;;;;;;;;;7.10;99.90;;;5.22;100.00;100466.63;4872932;29;19931;-78
2021/12/11 09:28:42;;;;;;;;;;;5.20;99.90;;;5.23;100.00;100466.63;4840788;29;20452;-77
2021/12/11 09:31:42;;;;;;;;;;;5.10;99.90;;;5.27;100.00;100471.84;4832479;29;19920;-80
2021/12/11 09:34:17;;;;;;;;;;;5.10;99.90;;;5.30;100.00;100477.06;4842584;29;20010;-77
2021/12/11 09:36:49;;;;;;;;;;;5.90;99.90;;;5.39;100.00;100477.06;4825292;29;19934;-77
2021/12/11 09:39:45;;;;;;;;;;;5.30;99.90;;;5.44;100.00;100484.88;4824214;29;19986;-76
2021/12/11 09:42:12;;;;;;;;;;;5.30;99.90;;;5.35;100.00;100489.22;4823114;29;20305;-77
2021/12/11 09:44:43;;;;;;;;;;;5.30;99.90;;;5.43;100.00;100489.22;4840471;29;20000;-76
2021/12/11 09:47:28;;;;;;;;;;;5.30;99.90;;;5.47;100.00;100495.31;4856081;29;19967;-78
2021/12/11 09:50:02;;;;;;;;;;;5.60;99.90;;;5.55;100.00;100496.19;4843187;29;20406;-77
2021/12/11 09:52:32;;;;;;;;;;;5.30;99.90;;;5.60;100.00;100485.72;4839966;29;19927;-80
2021/12/11 09:55:10;;;;;;;;;;;5.40;99.90;;;5.60;100.00;100498.78;4838983;29;19928;-77
2021/12/11 09:57:42;;;;;;;;;;;5.40;99.90;;;5.49;100.00;100491.84;4824196;29;20026;-75
2021/12/11 10:00:18;;;;;;;;;;;5.40;99.90;;;5.51;100.00;100502.25;4872233;29;19934;-77
2021/12/11 10:02:46;;;;;;;;;;;5.50;99.90;;;5.48;100.00;100497.94;4873123;29;19928;-76
2021/12/11 10:05:37;;;;;;;;;;;7.40;99.90;;;5.60;100.00;100498.78;4887502;29;20035;-77
2021/12/11 10:08:41;;;;;;;;;;;5.50;99.90;;;5.52;100.00;100504.88;4840232;29;20563;-75
2021/12/11 10:11:17;;;;;;;;;;;5.70;99.90;;;5.65;100.00;100505.72;4871681;29;19927;-75
2021/12/11 10:14:12;;;;;;;;;;;5.60;99.90;;;5.75;100.00;100511.81;4875458;29;19973;-74
2021/12/11 10:16:47;;;;;;;;;;;5.60;99.90;;;5.75;100.00;100511.81;4865031;29;19927;-78
2021/12/11 10:19:17;;;;;;;;;;;5.60;99.90;;;5.81;100.00;100518.75;4859197;29;19982;-76
2021/12/11 10:21:48;;;;;;;;;;;5.70;99.90;;;5.90;100.00;100517.88;4874552;29;19924;-76
2021/12/11 10:24:20;;;;;;;;;;;6.50;99.90;;;5.92;100.00;100522.22;4873930;29;19928;-78
2021/12/11 10:26:49;;;;;;;;;;;5.70;99.90;;;5.84;100.00;100523.97;4859070;29;20559;-77
2021/12/11 10:29:16;;;;;;;;;;;5.80;99.90;;;6.01;100.00;100526.59;4874283;29;20026;-77
2021/12/11 10:31:58;;;;;;;;;;;6.60;99.90;;;6.02;100.00;100530.09;4874248;29;19928;-75
2021/12/11 10:34:27;;;;;;;;;;;6.30;99.90;;;6.08;100.00;100530.06;4865011;29;19984;-76
2021/12/11 10:37:07;;;;;;;;;;;5.30;99.90;;;6.08;100.00;100538.75;4860187;29;19934;-76
2021/12/11 10:39:36;;;;;;;;;;;5.90;99.90;;;6.13;100.00;100530.91;4855198;29;20294;-77
2021/12/11 10:42:04;;;;;;;;;;;6.80;99.90;;;6.06;100.00;100534.41;4855107;29;19924;-76
2021/12/11 10:44:35;;;;;;;;;;;6.00;99.90;;;6.14;100.00;100540.47;4855986;29;19967;-78
2021/12/11 10:47:10;;;;;;;;;;;6.10;99.90;;;6.16;100.00;100543.09;4861452;29;20029;-76
2021/12/11 10:49:38;;;;;;;;;;;6.10;99.90;;;6.28;100.00;100550.91;4879025;29;20783;-75
2021/12/11 10:52:30;;;;;;;;;;;6.30;99.90;;;6.13;100.00;100543.97;4873555;29;19931;-75
2021/12/11 10:55:00;;;;;;;;;;;6.10;99.90;;;6.33;100.00;100548.28;4886345;29;19934;-78
2021/12/11 10:57:28;;;;;;;;;;;7.00;99.90;;;6.18;100.00;100547.44;4860071;29;20026;-78
2021/12/11 10:59:57;;;;;;;;;;;6.20;99.90;;;6.17;100.00;100552.66;4873719;29;19924;-76
2021/12/11 11:02:32;;;;;;;;;;;6.70;99.90;;;6.42;100.00;100555.22;4873563;29;20433;-77
2021/12/11 11:05:08;;;;;;;;;;;6.20;99.90;;;6.47;100.00;100564.75;4875092;29;20031;-77
2021/12/11 11:07:36;;;;;;;;;;;6.20;99.90;;;6.47;100.00;100566.50;4859656;29;19927;-77
2021/12/11 11:10:06;;;;;;;;;;;6.30;99.90;;;6.59;100.00;100569.09;4889121;29;20033;-78
2021/12/11 11:12:34;;;;;;;;;;;6.40;99.90;;;6.61;100.00;100569.06;4892623;29;20253;-76
2021/12/11 11:15:01;;;;;;;;;;;6.50;99.90;;;6.31;100.00;100565.69;4894165;29;20360;-77
2021/12/11 11:17:31;;;;;;;;;;;8.70;99.90;;;6.53;100.00;100572.59;4887434;29;19966;-77
2021/12/11 11:20:06;;;;;;;;;;;6.40;99.90;;;6.58;100.00;100580.41;4876776;29;19927;-75
2021/12/11 11:22:36;;;;;;;;;;;6.30;99.90;;;6.50;100.00;100577.84;4854561;29;20024;-76
2021/12/11 11:25:08;;;;;;;;;;;6.40;99.90;;;6.66;100.00;100586.47;4855027;29;20666;-76
2021/12/11 11:27:37;;;;;;;;;;;6.40;99.90;;;6.63;100.00;100585.59;4855161;29;20050;-78
2021/12/11 11:30:11;;;;;;;;;;;6.60;99.90;;;6.74;100.00;100591.66;4855079;29;20485;-77
2021/12/11 11:32:38;;;;;;;;;;;6.40;99.90;;;6.72;100.00;100585.56;4854832;29;20378;-76
2021/12/11 11:35:09;;;;;;;;;;;6.50;99.90;;;6.69;100.00;100589.94;4854804;29;19928;-76
2021/12/11 11:37:47;;;;;;;;;;;6.50;99.90;;;6.56;100.00;100597.84;4855312;29;20376;-75
2021/12/11 11:40:23;;;;;;;;;;;6.50;99.60;;;6.47;100.00;100592.66;4854675;29;19928;-77
2021/12/11 11:42:50;;;;;;;;;;;7.20;99.80;;;6.44;100.00;100598.75;4854341;29;19928;-76
2021/12/11 11:45:17;;;;;;;;;;;7.20;99.70;;;6.29;100.00;100598.78;4857807;29;20432;-76
2021/12/11 11:47:45;;;;;;;;;;;7.10;99.70;;;6.50;100.00;100605.72;4857899;29;19984;-77
2021/12/11 11:50:15;;;;;;;;;;;6.50;99.80;;;6.29;100.00;100602.28;4858145;29;19932;-77
2021/12/11 11:52:42;;;;;;;;;;;6.30;99.60;;;6.42;100.00;100607.50;4857674;29;20012;-76
2021/12/11 11:55:14;;;;;;;;;;;7.40;99.80;;;6.43;100.00;100610.09;4857688;29;19935;-76
2021/12/11 11:57:47;;;;;;;;;;;6.90;99.70;;;6.52;100.00;100617.91;4859016;29;20370;-77
2021/12/11 12:00:29;;;;;;;;;;;6.10;99.10;;;6.87;100.00;100613.41;4858475;29;20412;-77
2021/12/11 12:02:56;;;;;;;;;;;6.50;99.20;;;7.01;100.00;100615.06;4858614;29;20308;-77
2021/12/11 12:05:26;;;;;;;;;;;6.70;98.50;;;6.91;100.00;100622.97;4860436;29;19924;-76